Latest Weather Observations for Wattamolla

IDN60801

Issued at 6:03 pm EST Friday 1 July 2022 (issued every 10 minutes, with the page automatically refreshed every 10 minutes)

About weather observations | Map of weather stations | Latest weather observations for NSW | Other Formats
Station Details ID: 066208 Name: WATTAMOLLA AWS Lat: -34.14 Lon: 151.12 Height: 44.0 m
Data from the previous 72 hours. | See also: Recent months at Wattamolla
Date/Time
EST
Temp
°C
App
Temp
°C
Dew
Point
°C
Rel
Hum
%
Delta-T
°C
Wind Press
QNH
hPa
Press
MSL
hPa
Rain since
9am
mm
Dir  Spd
km/h
Gust
km/h
Spd
kts
Gust
kts
01/06:00pm - - - - - SSE 32 43 17 23 - - -
01/05:30pm - - - - - SSE 33 43 18 23 - - -
01/05:00pm - - - - - S 24 37 13 20 - - -
01/04:30pm - - - - - S 26 41 14 22 - - -
01/04:00pm - - - - - S 32 41 17 22 - - -
01/03:30pm - - - - - SSE 32 43 17 23 - - -
01/03:16pm - - - - - S 32 50 17 27 - - -
01/03:00pm - - - - - S 35 46 19 25 - - -
01/02:33pm - - - - - S 32 52 17 28 - - -
01/02:30pm - - - - - SSE 33 46 18 25 - - -
01/02:00pm - - - - - S 37 46 20 25 - - -
01/01:30pm - - - - - S 39 48 21 26 - - -
01/01:00pm - - - - - S 41 50 22 27 - - -
01/12:30pm - - - - - S 39 50 21 27 - - -
01/12:00pm - - - - - S 39 50 21 27 - - -
01/11:39am - - - - - S 35 54 19 29 - - -
01/11:30am - - - - - S 39 52 21 28 - - -
01/11:00am - - - - - S 43 50 23 27 - - -
01/10:30am - - - - - S 41 52 22 28 - - -
01/10:00am - - - - - S 39 48 21 26 - - -
01/09:30am - - - - - S 33 43 18 23 - - -
01/09:00am - - - - - S 37 46 20 25 - - -
01/08:30am - - - - - S 22 35 12 19 - - -
01/08:00am - - - - - SSW 17 28 9 15 - - -
01/07:30am - - - - - SSW 15 26 8 14 - - -
01/07:00am - - - - - S 22 35 12 19 - - -
01/06:32am - - - - - S 28 46 15 25 - - -
01/06:30am - - - - - S 30 46 16 25 - - -
01/06:04am - - - - - S 33 52 18 28 - - -
01/06:00am - - - - - S 39 52 21 28 - - -
01/05:30am - - - - - S 37 54 20 29 - - -
01/05:00am - - - - - S 28 46 15 25 - - -
01/04:30am - - - - - SSW 22 37 12 20 - - -
01/04:06am - - - - - S 30 48 16 26 - - -
01/04:00am - - - - - S 33 50 18 27 - - -
01/03:30am - - - - - S 39 48 21 26 - - -
01/03:00am - - - - - S 43 52 23 28 - - -
01/02:30am - - - - - S 39 48 21 26 - - -
01/02:00am - - - - - S 39 54 21 29 - - -
01/01:30am - - - - - S 41 50 22 27 - - -
01/01:00am - - - - - S 44 56 24 30 - - -
01/12:30am - - - - - S 39 50 21 27 - - -
01/12:00am - - - - - S 37 50 20 27 - - -
 
Date/Time
EST
Temp
°C
App
Temp
°C
Dew
Point
°C
Rel
Hum
%
Delta-T
°C
Wind Press
QNH
hPa
Press
MSL
hPa
Rain since
9am
mm
Dir  Spd
km/h
Gust
km/h
Spd
kts
Gust
kts
30/11:30pm - - - - - S 37 48 20 26 - - -
30/11:00pm - - - - - S 33 44 18 24 - - -
30/10:30pm - - - - - S 28 44 15 24 - - -
30/10:00pm - - - - - S 33 43 18 23 - - -
30/09:30pm - - - - - S 28 39 15 21 - - -
30/09:00pm - - - - - S 30 37 16 20 - - -
30/08:30pm - - - - - S 30 37 16 20 - - -
30/08:00pm - - - - - S 28 41 15 22 - - -
30/07:30pm - - - - - S 33 43 18 23 - - -
30/07:00pm - - - - - S 22 33 12 18 - - -
30/06:30pm - - - - - SSE 32 39 17 21 - - -
30/06:00pm - - - - - SSE 33 44 18 24 - - -
30/05:30pm - - - - - S 32 39 17 21 - - -
30/05:00pm - - - - - S 33 39 18 21 - - -
30/04:30pm - - - - - SSE 30 37 16 20 - - -
30/04:00pm - - - - - S 32 37 17 20 - - -
30/03:30pm - - - - - SSE 28 35 15 19 - - -
30/03:00pm - - - - - S 26 32 14 17 - - -
30/02:30pm - - - - - S 20 30 11 16 - - -
30/02:00pm - - - - - S 20 28 11 15 - - -
30/01:30pm - - - - - S 20 26 11 14 - - -
30/01:00pm - - - - - S 19 30 10 16 - - -
30/12:30pm - - - - - S 22 30 12 16 - - -
30/12:00pm - - - - - S 20 28 11 15 - - -
30/11:30am - - - - - S 17 22 9 12 - - -
30/11:00am - - - - - SSW 15 22 8 12 - - -
30/10:30am - - - - - WSW 13 19 7 10 - - -
30/10:00am - - - - - W 11 17 6 9 - - -
30/09:30am - - - - - W 15 24 8 13 - - -
30/09:00am - - - - - W 19 28 10 15 - - -
30/08:30am - - - - - W 20 28 11 15 - - -
30/08:00am - - - - - W 15 22 8 12 - - -
30/07:30am - - - - - W 19 26 10 14 - - -
30/07:00am - - - - - WSW 17 26 9 14 - - -
30/06:30am - - - - - W 17 20 9 11 - - -
30/06:00am - - - - - W 17 20 9 11 - - -
30/05:30am - - - - - WNW 15 17 8 9 - - -
30/05:00am - - - - - WNW 19 24 10 13 - - -
30/04:30am - - - - - WNW 19 24 10 13 - - -
30/04:00am - - - - - NW 17 22 9 12 - - -
30/03:30am - - - - - WNW 17 20 9 11 - - -
30/03:00am - - - - - NW 11 19 6 10 - - -
30/02:30am - - - - - NW 15 20 8 11 - - -
30/02:00am - - - - - NW 13 19 7 10 - - -
30/01:30am - - - - - NW 17 20 9 11 - - -
30/01:00am - - - - - NW 20 26 11 14 - - -
30/12:30am - - - - - NW 19 22 10 12 - - -
30/12:00am - - - - - NW 20 24 11 13 - - -
 
Date/Time
EST
Temp
°C
App
Temp
°C
Dew
Point
°C
Rel
Hum
%
Delta-T
°C
Wind Press
QNH
hPa
Press
MSL
hPa
Rain since
9am
mm
Dir  Spd
km/h
Gust
km/h
Spd
kts
Gust
kts
29/11:30pm - - - - - WNW 19 24 10 13 - - -
29/11:00pm - - - - - WNW 19 24 10 13 - - -
29/10:30pm - - - - - WNW 17 20 9 11 - - -
29/10:00pm - - - - - NW 20 26 11 14 - - -
29/09:30pm - - - - - NW 19 26 10 14 - - -
29/09:00pm - - - - - NW 17 19 9 10 - - -
29/08:30pm - - - - - NW 11 15 6 8 - - -
29/08:00pm - - - - - NW 11 15 6 8 - - -
29/07:30pm - - - - - NNW 13 15 7 8 - - -
29/07:00pm - - - - - NNW 13 17 7 9 - - -
29/06:30pm - - - - - NNW 15 17 8 9 - - -
29/06:00pm - - - - - NNW 15 17 8 9 - - -
29/05:30pm - - - - - N 13 15 7 8 - - -
29/05:00pm - - - - - N 11 13 6 7 - - -
29/04:30pm - - - - - N 13 15 7 8 - - -
29/04:00pm - - - - - N 11 15 6 8 - - -
29/03:30pm - - - - - N 13 17 7 9 - - -
29/03:00pm - - - - - NNW 11 19 6 10 - - -
29/02:30pm - - - - - NNW 13 20 7 11 - - -
29/02:00pm - - - - - N 13 19 7 10 - - -
29/01:30pm - - - - - NNW 17 28 9 15 - - -
29/01:00pm - - - - - NNW 17 30 9 16 - - -
29/12:30pm - - - - - N 19 32 10 17 - - -
29/12:00pm - - - - - NNW 17 28 9 15 - - -
29/11:30am - - - - - NNW 9 17 5 9 - - -
29/11:00am - - - - - NW 13 24 7 13 - - -
29/10:30am - - - - - WNW 17 22 9 12 - - -
29/10:00am - - - - - WNW 19 30 10 16 - - -
29/09:30am - - - - - WNW 17 24 9 13 - - -
29/09:00am - - - - - WNW 15 26 8 14 - - -
29/08:30am - - - - - WNW 15 20 8 11 - - -
29/08:00am - - - - - WNW 17 19 9 10 - - -
29/07:30am - - - - - WNW 17 20 9 11 - - -
29/07:00am - - - - - WNW 17 19 9 10 - - -
29/06:30am - - - - - WNW 19 20 10 11 - - -
29/06:00am - - - - - WNW 19 20 10 11 - - -
29/05:30am - - - - - WNW 19 20 10 11 - - -
29/05:00am - - - - - WNW 19 22 10 12 - - -
29/04:30am - - - - - WNW 17 20 9 11 - - -
29/04:00am - - - - - WNW 19 24 10 13 - - -
29/03:30am - - - - - WNW 20 26 11 14 - - -
29/03:00am - - - - - WNW 20 28 11 15 - - -
29/02:30am - - - - - WNW 19 24 10 13 - - -
29/02:00am - - - - - WNW 17 26 9 14 - - -
29/01:30am - - - - - WNW 19 24 10 13 - - -
29/01:00am - - - - - NW 17 19 9 10 - - -
29/12:30am - - - - - WNW 20 26 11 14 - - -
29/12:00am - - - - - WNW 19 24 10 13 - - -
 
Date/Time
EST
Temp
°C
App
Temp
°C
Dew
Point
°C
Rel
Hum
%
Delta-T
°C
Wind Press
QNH
hPa
Press
MSL
hPa
Rain since
9am
mm
Dir  Spd
km/h
Gust
km/h
Spd
kts
Gust
kts
28/11:30pm - - - - - WNW 19 24 10 13 - - -
28/11:00pm - - - - - NW 15 19 8 10 - - -
28/10:30pm - - - - - W 11 15 6 8 - - -
28/10:00pm - - - - - WSW 13 17 7 9 - - -
28/09:30pm - - - - - WSW 17 28 9 15 - - -
28/09:00pm - - - - - WSW 13 17 7 9 - - -
28/08:30pm - - - - - W 17 20 9 11 - - -
28/08:00pm - - - - - WSW 19 24 10 13 - - -
28/07:30pm - - - - - WNW 13 26 7 14 - - -
28/07:00pm - - - - - WSW 11 35 6 19 - - -
28/06:30pm - - - - - NNW 9 13 5 7 - - -

Other formats

Comma delimited format used in spreadsheet applications
http://www.bom.gov.au/fwo/IDN60801/IDN60801.95752.axf

JavaScript Object Notation format (JSON) in row-major order
http://www.bom.gov.au/fwo/IDN60801/IDN60801.95752.json

Data quality

Most of these data are generated automatically and are frequently updated. Quality checks on data are not normally performed. It is possible for incorrect values to appear. Refer to information at About Latest Weather Observations and please check the disclaimer before using these data.